sensor_id;sensor_type;location;lat;lon;timestamp;P1;durP1;ratioP1;P2;durP2;ratioP2
26435;SDS011;15351;52.408;16.826;2023-03-01T00:00:18;271.60;;;164.40;;
26435;SDS011;15351;52.408;16.826;2023-03-01T00:03:07;267.40;;;160.10;;
26435;SDS011;15351;52.408;16.826;2023-03-01T00:05:34;256.00;;;151.90;;
26435;SDS011;15351;52.408;16.826;2023-03-01T00:08:14;253.60;;;138.50;;
26435;SDS011;15351;52.408;16.826;2023-03-01T00:10:42;251.10;;;134.70;;
26435;SDS011;15351;52.408;16.826;2023-03-01T00:13:30;239.10;;;142.80;;
26435;SDS011;15351;52.408;16.826;2023-03-01T00:15:58;235.20;;;140.10;;
26435;SDS011;15351;52.408;16.826;2023-03-01T00:18:25;232.70;;;139.40;;
26435;SDS011;15351;52.408;16.826;2023-03-01T00:20:52;229.40;;;136.80;;
26435;SDS011;15351;52.408;16.826;2023-03-01T00:23:23;223.30;;;135.70;;
26435;SDS011;15351;52.408;16.826;2023-03-01T00:25:50;230.80;;;123.50;;
26435;SDS011;15351;52.408;16.826;2023-03-01T00:28:18;224.10;;;118.30;;
26435;SDS011;15351;52.408;16.826;2023-03-01T00:31:04;211.10;;;127.00;;
26435;SDS011;15351;52.408;16.826;2023-03-01T00:33:52;222.40;;;131.40;;
26435;SDS011;15351;52.408;16.826;2023-03-01T00:36:24;215.60;;;130.20;;
26435;SDS011;15351;52.408;16.826;2023-03-01T00:39:02;221.60;;;135.30;;
26435;SDS011;15351;52.408;16.826;2023-03-01T00:41:48;224.40;;;132.20;;
26435;SDS011;15351;52.408;16.826;2023-03-01T00:44:19;235.90;;;124.10;;
26435;SDS011;15351;52.408;16.826;2023-03-01T00:46:46;242.80;;;126.30;;
26435;SDS011;15351;52.408;16.826;2023-03-01T00:49:23;214.20;;;127.60;;
26435;SDS011;15351;52.408;16.826;2023-03-01T00:51:56;212.10;;;129.70;;
26435;SDS011;15351;52.408;16.826;2023-03-01T00:54:23;225.70;;;133.70;;
26435;SDS011;15351;52.408;16.826;2023-03-01T00:56:49;225.70;;;135.30;;
26435;SDS011;15351;52.408;16.826;2023-03-01T00:59:17;222.60;;;131.00;;
26435;SDS011;15351;52.408;16.826;2023-03-01T01:01:48;215.70;;;130.00;;
26435;SDS011;15351;52.408;16.826;2023-03-01T01:04:25;234.40;;;119.90;;
26435;SDS011;15351;52.408;16.826;2023-03-01T01:06:53;222.60;;;114.30;;
26435;SDS011;15351;52.408;16.826;2023-03-01T01:09:23;204.40;;;122.70;;
26435;SDS011;15351;52.408;16.826;2023-03-01T01:11:50;211.10;;;123.70;;
26435;SDS011;15351;52.408;16.826;2023-03-01T01:14:37;214.70;;;126.60;;
26435;SDS011;15351;52.408;16.826;2023-03-01T01:17:06;211.00;;;124.70;;
26435;SDS011;15351;52.408;16.826;2023-03-01T01:19:35;208.70;;;123.60;;
26435;SDS011;15351;52.408;16.826;2023-03-01T01:22:02;207.40;;;120.00;;
26435;SDS011;15351;52.408;16.826;2023-03-01T01:24:31;216.90;;;111.70;;
26435;SDS011;15351;52.408;16.826;2023-03-01T01:27:00;193.90;;;113.30;;
26435;SDS011;15351;52.408;16.826;2023-03-01T01:29:38;189.70;;;114.20;;
26435;SDS011;15351;52.408;16.826;2023-03-01T01:32:09;191.80;;;115.10;;
26435;SDS011;15351;52.408;16.826;2023-03-01T01:34:47;199.90;;;120.20;;
26435;SDS011;15351;52.408;16.826;2023-03-01T01:37:18;203.90;;;120.90;;
26435;SDS011;15351;52.408;16.826;2023-03-01T01:39:45;200.30;;;121.00;;
26435;SDS011;15351;52.408;16.826;2023-03-01T01:42:16;204.50;;;106.90;;
26435;SDS011;15351;52.408;16.826;2023-03-01T01:48:48;192.40;;;114.80;;
26435;SDS011;15351;52.408;16.826;2023-03-01T01:51:42;191.70;;;114.20;;
26435;SDS011;15351;52.408;16.826;2023-03-01T01:54:17;195.00;;;117.70;;
26435;SDS011;15351;52.408;16.826;2023-03-01T01:56:52;203.80;;;118.90;;
26435;SDS011;15351;52.408;16.826;2023-03-01T01:59:33;207.70;;;114.00;;
26435;SDS011;15351;52.408;16.826;2023-03-01T02:02:05;212.50;;;109.30;;
26435;SDS011;15351;52.408;16.826;2023-03-01T02:04:54;207.10;;;121.10;;
26435;SDS011;15351;52.408;16.826;2023-03-01T02:07:31;206.30;;;123.10;;
26435;SDS011;15351;52.408;16.826;2023-03-01T02:10:01;214.80;;;127.10;;
26435;SDS011;15351;52.408;16.826;2023-03-01T02:12:33;212.00;;;126.30;;
26435;SDS011;15351;52.408;16.826;2023-03-01T02:15:09;215.60;;;126.70;;
26435;SDS011;15351;52.408;16.826;2023-03-01T02:17:40;210.50;;;125.70;;
26435;SDS011;15351;52.408;16.826;2023-03-01T02:21:05;224.10;;;116.30;;
26435;SDS011;15351;52.408;16.826;2023-03-01T02:23:58;208.40;;;121.90;;
26435;SDS011;15351;52.408;16.826;2023-03-01T02:26:45;231.70;;;134.90;;
26435;SDS011;15351;52.408;16.826;2023-03-01T02:29:21;266.00;;;154.70;;
26435;SDS011;15351;52.408;16.826;2023-03-01T02:31:49;280.70;;;164.10;;
26435;SDS011;15351;52.408;16.826;2023-03-01T02:34:21;271.40;;;155.50;;
26435;SDS011;15351;52.408;16.826;2023-03-01T02:37:07;276.40;;;142.40;;
26435;SDS011;15351;52.408;16.826;2023-03-01T02:39:58;272.90;;;139.90;;
26435;SDS011;15351;52.408;16.826;2023-03-01T02:42:31;272.80;;;158.40;;
26435;SDS011;15351;52.408;16.826;2023-03-01T02:45:14;275.30;;;156.80;;
26435;SDS011;15351;52.408;16.826;2023-03-01T02:47:42;269.30;;;158.30;;
26435;SDS011;15351;52.408;16.826;2023-03-01T02:50:18;287.10;;;163.00;;
26435;SDS011;15351;52.408;16.826;2023-03-01T02:55:57;295.40;;;150.00;;
26435;SDS011;15351;52.408;16.826;2023-03-01T02:58:26;283.80;;;141.30;;
26435;SDS011;15351;52.408;16.826;2023-03-01T03:00:55;264.20;;;151.20;;
26435;SDS011;15351;52.408;16.826;2023-03-01T03:03:49;262.40;;;148.40;;
26435;SDS011;15351;52.408;16.826;2023-03-01T03:06:29;261.70;;;151.00;;
26435;SDS011;15351;52.408;16.826;2023-03-01T03:08:58;262.00;;;152.30;;
26435;SDS011;15351;52.408;16.826;2023-03-01T03:11:48;266.10;;;135.70;;
26435;SDS011;15351;52.408;16.826;2023-03-01T03:14:16;266.00;;;131.20;;
26435;SDS011;15351;52.408;16.826;2023-03-01T03:16:48;226.10;;;131.30;;
26435;SDS011;15351;52.408;16.826;2023-03-01T03:19:19;227.40;;;132.60;;
26435;SDS011;15351;52.408;16.826;2023-03-01T03:21:49;222.80;;;131.80;;
26435;SDS011;15351;52.408;16.826;2023-03-01T03:24:17;238.20;;;136.60;;
26435;SDS011;15351;52.408;16.826;2023-03-01T03:26:46;232.50;;;136.50;;
26435;SDS011;15351;52.408;16.826;2023-03-01T03:29:13;234.30;;;138.50;;
26435;SDS011;15351;52.408;16.826;2023-03-01T03:31:44;243.90;;;125.20;;
26435;SDS011;15351;52.408;16.826;2023-03-01T03:34:18;226.30;;;121.50;;
26435;SDS011;15351;52.408;16.826;2023-03-01T03:37:04;209.00;;;124.60;;
26435;SDS011;15351;52.408;16.826;2023-03-01T03:39:51;209.80;;;124.10;;
26435;SDS011;15351;52.408;16.826;2023-03-01T03:42:29;215.50;;;125.70;;
26435;SDS011;15351;52.408;16.826;2023-03-01T03:44:59;218.60;;;127.40;;
26435;SDS011;15351;52.408;16.826;2023-03-01T03:47:27;210.20;;;124.10;;
26435;SDS011;15351;52.408;16.826;2023-03-01T03:49:57;224.20;;;113.20;;
26435;SDS011;15351;52.408;16.826;2023-03-01T03:52:27;217.20;;;107.50;;
26435;SDS011;15351;52.408;16.826;2023-03-01T03:54:55;196.80;;;115.10;;
26435;SDS011;15351;52.408;16.826;2023-03-01T03:57:22;199.80;;;117.60;;
26435;SDS011;15351;52.408;16.826;2023-03-01T03:59:51;200.40;;;117.30;;
26435;SDS011;15351;52.408;16.826;2023-03-01T04:02:19;197.20;;;116.70;;
26435;SDS011;15351;52.408;16.826;2023-03-01T04:04:48;203.30;;;118.40;;
26435;SDS011;15351;52.408;16.826;2023-03-01T04:07:17;215.90;;;112.10;;
26435;SDS011;15351;52.408;16.826;2023-03-01T04:09:50;212.30;;;108.80;;
26435;SDS011;15351;52.408;16.826;2023-03-01T04:12:18;182.30;;;108.70;;
26435;SDS011;15351;52.408;16.826;2023-03-01T04:14:49;196.50;;;112.70;;
26435;SDS011;15351;52.408;16.826;2023-03-01T04:17:18;186.50;;;110.50;;
26435;SDS011;15351;52.408;16.826;2023-03-01T04:19:49;197.40;;;115.30;;
26435;SDS011;15351;52.408;16.826;2023-03-01T04:22:25;191.30;;;112.90;;
26435;SDS011;15351;52.408;16.826;2023-03-01T04:25:15;204.90;;;105.10;;
26435;SDS011;15351;52.408;16.826;2023-03-01T04:27:42;196.10;;;102.50;;
26435;SDS011;15351;52.408;16.826;2023-03-01T04:30:09;187.60;;;107.70;;
26435;SDS011;15351;52.408;16.826;2023-03-01T04:32:37;187.70;;;109.10;;
26435;SDS011;15351;52.408;16.826;2023-03-01T04:35:16;189.60;;;111.10;;
26435;SDS011;15351;52.408;16.826;2023-03-01T04:37:43;187.20;;;109.40;;
26435;SDS011;15351;52.408;16.826;2023-03-01T04:40:14;187.90;;;110.20;;
26435;SDS011;15351;52.408;16.826;2023-03-01T04:42:44;185.90;;;108.50;;
26435;SDS011;15351;52.408;16.826;2023-03-01T04:45:31;192.50;;;99.90;;
26435;SDS011;15351;52.408;16.826;2023-03-01T04:48:03;179.80;;;93.60;;
26435;SDS011;15351;52.408;16.826;2023-03-01T04:50:31;173.20;;;100.40;;
26435;SDS011;15351;52.408;16.826;2023-03-01T04:53:06;170.80;;;100.10;;
26435;SDS011;15351;52.408;16.826;2023-03-01T04:55:34;171.60;;;101.90;;
26435;SDS011;15351;52.408;16.826;2023-03-01T04:58:40;171.60;;;102.30;;
26435;SDS011;15351;52.408;16.826;2023-03-01T05:01:22;183.20;;;94.10;;
26435;SDS011;15351;52.408;16.826;2023-03-01T05:03:50;180.10;;;91.80;;
26435;SDS011;15351;52.408;16.826;2023-03-01T05:06:18;163.90;;;97.30;;
26435;SDS011;15351;52.408;16.826;2023-03-01T05:08:48;171.20;;;97.80;;
26435;SDS011;15351;52.408;16.826;2023-03-01T05:11:19;168.80;;;99.10;;
26435;SDS011;15351;52.408;16.826;2023-03-01T05:13:49;170.90;;;100.70;;
26435;SDS011;15351;52.408;16.826;2023-03-01T05:16:21;174.50;;;101.10;;
26435;SDS011;15351;52.408;16.826;2023-03-01T05:18:54;173.70;;;101.90;;
26435;SDS011;15351;52.408;16.826;2023-03-01T05:21:44;181.50;;;92.90;;
26435;SDS011;15351;52.408;16.826;2023-03-01T05:24:32;171.50;;;96.80;;
26435;SDS011;15351;52.408;16.826;2023-03-01T05:27:02;164.40;;;95.20;;
26435;SDS011;15351;52.408;16.826;2023-03-01T05:29:35;164.80;;;93.40;;
26435;SDS011;15351;52.408;16.826;2023-03-01T05:32:28;170.50;;;95.90;;
26435;SDS011;15351;52.408;16.826;2023-03-01T05:35:18;171.30;;;99.20;;
26435;SDS011;15351;52.408;16.826;2023-03-01T05:37:47;170.80;;;98.60;;
26435;SDS011;15351;52.408;16.826;2023-03-01T05:40:19;176.40;;;91.00;;
26435;SDS011;15351;52.408;16.826;2023-03-01T05:42:56;168.80;;;92.50;;
26435;SDS011;15351;52.408;16.826;2023-03-01T05:45:24;163.70;;;94.60;;
26435;SDS011;15351;52.408;16.826;2023-03-01T05:48:00;160.80;;;95.50;;
26435;SDS011;15351;52.408;16.826;2023-03-01T05:50:28;163.10;;;95.50;;
26435;SDS011;15351;52.408;16.826;2023-03-01T05:53:02;165.30;;;96.30;;
26435;SDS011;15351;52.408;16.826;2023-03-01T05:55:53;164.00;;;96.60;;
26435;SDS011;15351;52.408;16.826;2023-03-01T05:58:23;179.70;;;91.30;;
26435;SDS011;15351;52.408;16.826;2023-03-01T06:00:53;159.00;;;84.10;;
26435;SDS011;15351;52.408;16.826;2023-03-01T06:03:25;154.90;;;89.70;;
26435;SDS011;15351;52.408;16.826;2023-03-01T06:05:56;155.70;;;91.20;;
26435;SDS011;15351;52.408;16.826;2023-03-01T06:08:24;162.10;;;95.50;;
26435;SDS011;15351;52.408;16.826;2023-03-01T06:11:01;167.80;;;98.10;;
26435;SDS011;15351;52.408;16.826;2023-03-01T06:13:30;168.10;;;98.20;;
26435;SDS011;15351;52.408;16.826;2023-03-01T06:16:09;178.40;;;91.30;;
26435;SDS011;15351;52.408;16.826;2023-03-01T06:18:57;180.30;;;88.90;;
26435;SDS011;15351;52.408;16.826;2023-03-01T06:21:25;172.10;;;98.40;;
26435;SDS011;15351;52.408;16.826;2023-03-01T06:23:53;180.70;;;105.40;;
26435;SDS011;15351;52.408;16.826;2023-03-01T06:26:21;177.40;;;104.40;;
26435;SDS011;15351;52.408;16.826;2023-03-01T06:28:51;196.60;;;100.60;;
26435;SDS011;15351;52.408;16.826;2023-03-01T06:31:24;218.30;;;105.80;;
26435;SDS011;15351;52.408;16.826;2023-03-01T06:34:30;180.60;;;104.10;;
26435;SDS011;15351;52.408;16.826;2023-03-01T06:37:00;190.50;;;110.70;;
26435;SDS011;15351;52.408;16.826;2023-03-01T06:42:42;239.70;;;117.40;;
26435;SDS011;15351;52.408;16.826;2023-03-01T06:50:03;215.10;;;115.60;;
26435;SDS011;15351;52.408;16.826;2023-03-01T06:52:40;220.30;;;118.90;;
26435;SDS011;15351;52.408;16.826;2023-03-01T06:55:18;212.40;;;116.40;;
26435;SDS011;15351;52.408;16.826;2023-03-01T07:06:25;192.50;;;102.10;;
26435;SDS011;15351;52.408;16.826;2023-03-01T07:10:16;181.80;;;99.80;;
26435;SDS011;15351;52.408;16.826;2023-03-01T07:16:46;228.40;;;99.20;;
26435;SDS011;15351;52.408;16.826;2023-03-01T07:22:56;200.60;;;104.30;;
26435;SDS011;15351;52.408;16.826;2023-03-01T07:25:58;205.50;;;97.40;;
26435;SDS011;15351;52.408;16.826;2023-03-01T07:28:57;203.60;;;96.50;;
26435;SDS011;15351;52.408;16.826;2023-03-01T07:35:40;209.40;;;109.20;;
26435;SDS011;15351;52.408;16.826;2023-03-01T07:48:21;150.20;;;86.20;;
26435;SDS011;15351;52.408;16.826;2023-03-01T08:02:28;95.20;;;58.70;;
26435;SDS011;15351;52.408;16.826;2023-03-01T08:05:28;95.00;;;59.50;;
26435;SDS011;15351;52.408;16.826;2023-03-01T08:08:23;103.90;;;64.00;;
26435;SDS011;15351;52.408;16.826;2023-03-01T08:10:58;104.90;;;58.70;;
26435;SDS011;15351;52.408;16.826;2023-03-01T08:13:28;96.60;;;52.80;;
26435;SDS011;15351;52.408;16.826;2023-03-01T08:19:10;65.10;;;43.50;;
26435;SDS011;15351;52.408;16.826;2023-03-01T08:22:01;56.80;;;37.90;;
26435;SDS011;15351;52.408;16.826;2023-03-01T08:24:52;49.60;;;32.70;;
26435;SDS011;15351;52.408;16.826;2023-03-01T08:27:36;53.40;;;31.70;;
26435;SDS011;15351;52.408;16.826;2023-03-01T08:30:06;45.10;;;29.50;;
26435;SDS011;15351;52.408;16.826;2023-03-01T08:32:37;38.30;;;24.90;;
26435;SDS011;15351;52.408;16.826;2023-03-01T08:35:24;34.60;;;23.10;;
26435;SDS011;15351;52.408;16.826;2023-03-01T08:37:53;36.60;;;23.20;;
26435;SDS011;15351;52.408;16.826;2023-03-01T08:40:20;33.80;;;22.00;;
26435;SDS011;15351;52.408;16.826;2023-03-01T08:42:49;33.30;;;21.20;;
26435;SDS011;15351;52.408;16.826;2023-03-01T08:45:28;34.70;;;22.00;;
26435;SDS011;15351;52.408;16.826;2023-03-01T08:48:02;31.40;;;20.60;;
26435;SDS011;15351;52.408;16.826;2023-03-01T08:50:29;32.10;;;20.90;;
26435;SDS011;15351;52.408;16.826;2023-03-01T08:52:57;32.00;;;21.00;;
26435;SDS011;15351;52.408;16.826;2023-03-01T08:55:24;32.00;;;20.60;;
26435;SDS011;15351;52.408;16.826;2023-03-01T08:57:55;25.80;;;17.50;;
26435;SDS011;15351;52.408;16.826;2023-03-01T09:00:22;22.20;;;16.00;;
26435;SDS011;15351;52.408;16.826;2023-03-01T09:02:51;21.90;;;14.00;;
26435;SDS011;15351;52.408;16.826;2023-03-01T09:05:18;21.60;;;13.80;;
26435;SDS011;15351;52.408;16.826;2023-03-01T09:07:48;23.90;;;15.40;;
26435;SDS011;15351;52.408;16.826;2023-03-01T09:10:16;23.60;;;15.80;;
26435;SDS011;15351;52.408;16.826;2023-03-01T09:12:44;17.90;;;13.50;;
26435;SDS011;15351;52.408;16.826;2023-03-01T09:15:11;19.50;;;13.00;;
26435;SDS011;15351;52.408;16.826;2023-03-01T09:17:39;19.30;;;13.00;;
26435;SDS011;15351;52.408;16.826;2023-03-01T09:20:08;18.90;;;12.60;;
26435;SDS011;15351;52.408;16.826;2023-03-01T09:22:40;17.00;;;11.50;;
26435;SDS011;15351;52.408;16.826;2023-03-01T09:25:10;16.70;;;11.20;;
26435;SDS011;15351;52.408;16.826;2023-03-01T09:27:37;17.30;;;12.40;;
26435;SDS011;15351;52.408;16.826;2023-03-01T09:30:28;17.40;;;12.00;;
26435;SDS011;15351;52.408;16.826;2023-03-01T09:32:56;17.20;;;12.20;;
26435;SDS011;15351;52.408;16.826;2023-03-01T09:35:25;17.90;;;12.50;;
26435;SDS011;15351;52.408;16.826;2023-03-01T09:37:53;19.20;;;13.10;;
26435;SDS011;15351;52.408;16.826;2023-03-01T09:40:23;17.00;;;11.60;;
26435;SDS011;15351;52.408;16.826;2023-03-01T09:43:03;14.90;;;9.60;;
26435;SDS011;15351;52.408;16.826;2023-03-01T09:45:53;13.80;;;9.50;;
26435;SDS011;15351;52.408;16.826;2023-03-01T09:48:28;14.50;;;9.90;;
26435;SDS011;15351;52.408;16.826;2023-03-01T09:51:05;13.70;;;9.40;;
26435;SDS011;15351;52.408;16.826;2023-03-01T09:53:40;14.60;;;9.30;;
26435;SDS011;15351;52.408;16.826;2023-03-01T09:56:14;17.10;;;11.80;;
26435;SDS011;15351;52.408;16.826;2023-03-01T09:59:50;14.40;;;10.10;;
26435;SDS011;15351;52.408;16.826;2023-03-01T10:02:27;17.20;;;10.70;;
26435;SDS011;15351;52.408;16.826;2023-03-01T10:05:36;16.10;;;11.70;;
26435;SDS011;15351;52.408;16.826;2023-03-01T10:08:30;12.70;;;8.60;;
26435;SDS011;15351;52.408;16.826;2023-03-01T10:11:22;14.40;;;9.20;;
26435;SDS011;15351;52.408;16.826;2023-03-01T10:16:53;12.50;;;9.20;;
26435;SDS011;15351;52.408;16.826;2023-03-01T10:19:46;14.30;;;9.90;;
26435;SDS011;15351;52.408;16.826;2023-03-01T10:22:20;16.10;;;10.70;;
26435;SDS011;15351;52.408;16.826;2023-03-01T10:24:57;17.10;;;11.10;;
26435;SDS011;15351;52.408;16.826;2023-03-01T10:30:37;15.20;;;10.70;;
26435;SDS011;15351;52.408;16.826;2023-03-01T10:33:48;17.30;;;10.90;;
26435;SDS011;15351;52.408;16.826;2023-03-01T10:36:33;15.20;;;11.20;;
26435;SDS011;15351;52.408;16.826;2023-03-01T10:39:21;16.20;;;11.30;;
26435;SDS011;15351;52.408;16.826;2023-03-01T10:42:02;15.00;;;10.50;;
26435;SDS011;15351;52.408;16.826;2023-03-01T10:48:25;14.70;;;9.50;;
26435;SDS011;15351;52.408;16.826;2023-03-01T10:51:17;15.80;;;10.20;;
26435;SDS011;15351;52.408;16.826;2023-03-01T10:54:18;13.90;;;9.50;;
26435;SDS011;15351;52.408;16.826;2023-03-01T10:57:09;13.40;;;8.90;;
26435;SDS011;15351;52.408;16.826;2023-03-01T11:05:27;10.90;;;7.60;;
26435;SDS011;15351;52.408;16.826;2023-03-01T11:07:58;10.40;;;7.40;;
26435;SDS011;15351;52.408;16.826;2023-03-01T11:10:43;9.50;;;7.20;;
26435;SDS011;15351;52.408;16.826;2023-03-01T11:13:15;11.20;;;7.50;;
26435;SDS011;15351;52.408;16.826;2023-03-01T11:16:14;11.80;;;8.90;;
26435;SDS011;15351;52.408;16.826;2023-03-01T11:19:00;13.20;;;8.70;;
26435;SDS011;15351;52.408;16.826;2023-03-01T11:24:41;14.70;;;9.20;;
26435;SDS011;15351;52.408;16.826;2023-03-01T11:27:28;16.40;;;10.10;;
26435;SDS011;15351;52.408;16.826;2023-03-01T11:33:01;11.50;;;7.60;;
26435;SDS011;15351;52.408;16.826;2023-03-01T11:38:36;8.60;;;6.30;;
26435;SDS011;15351;52.408;16.826;2023-03-01T11:41:35;7.90;;;6.00;;
26435;SDS011;15351;52.408;16.826;2023-03-01T11:45:10;11.00;;;7.00;;
26435;SDS011;15351;52.408;16.826;2023-03-01T11:50:58;9.90;;;7.30;;
26435;SDS011;15351;52.408;16.826;2023-03-01T11:57:31;9.10;;;7.20;;
26435;SDS011;15351;52.408;16.826;2023-03-01T12:00:07;11.60;;;8.30;;
26435;SDS011;15351;52.408;16.826;2023-03-01T12:09:36;11.30;;;7.50;;
26435;SDS011;15351;52.408;16.826;2023-03-01T12:12:35;10.70;;;7.50;;
26435;SDS011;15351;52.408;16.826;2023-03-01T12:19:13;10.60;;;7.60;;
26435;SDS011;15351;52.408;16.826;2023-03-01T12:32:22;10.40;;;7.30;;
26435;SDS011;15351;52.408;16.826;2023-03-01T12:39:22;11.30;;;7.20;;
26435;SDS011;15351;52.408;16.826;2023-03-01T12:45:58;9.50;;;6.60;;
26435;SDS011;15351;52.408;16.826;2023-03-01T12:52:03;10.60;;;6.80;;
26435;SDS011;15351;52.408;16.826;2023-03-01T12:55:00;11.60;;;7.20;;
26435;SDS011;15351;52.408;16.826;2023-03-01T12:57:45;10.70;;;7.30;;
26435;SDS011;15351;52.408;16.826;2023-03-01T13:00:31;10.20;;;7.60;;
26435;SDS011;15351;52.408;16.826;2023-03-01T13:09:06;10.80;;;7.80;;
26435;SDS011;15351;52.408;16.826;2023-03-01T13:18:07;10.70;;;7.80;;
26435;SDS011;15351;52.408;16.826;2023-03-01T13:21:02;11.00;;;8.20;;
26435;SDS011;15351;52.408;16.826;2023-03-01T13:23:50;10.80;;;7.50;;
26435;SDS011;15351;52.408;16.826;2023-03-01T13:30:38;11.80;;;8.80;;
26435;SDS011;15351;52.408;16.826;2023-03-01T13:33:49;12.20;;;8.10;;
26435;SDS011;15351;52.408;16.826;2023-03-01T13:39:27;13.40;;;9.20;;
26435;SDS011;15351;52.408;16.826;2023-03-01T13:48:28;14.70;;;9.10;;
26435;SDS011;15351;52.408;16.826;2023-03-01T13:51:15;10.50;;;7.70;;
26435;SDS011;15351;52.408;16.826;2023-03-01T13:53:52;12.10;;;8.10;;
26435;SDS011;15351;52.408;16.826;2023-03-01T13:56:28;12.20;;;8.70;;
26435;SDS011;15351;52.408;16.826;2023-03-01T13:59:19;10.50;;;7.90;;
26435;SDS011;15351;52.408;16.826;2023-03-01T14:02:21;10.50;;;7.50;;
26435;SDS011;15351;52.408;16.826;2023-03-01T14:08:18;11.10;;;7.40;;
26435;SDS011;15351;52.408;16.826;2023-03-01T14:14:01;12.50;;;8.50;;
26435;SDS011;15351;52.408;16.826;2023-03-01T14:17:25;13.00;;;8.40;;
26435;SDS011;15351;52.408;16.826;2023-03-01T14:20:38;13.60;;;8.80;;
26435;SDS011;15351;52.408;16.826;2023-03-01T14:23:11;12.90;;;9.00;;
26435;SDS011;15351;52.408;16.826;2023-03-01T14:25:49;12.50;;;8.60;;
26435;SDS011;15351;52.408;16.826;2023-03-01T14:28:58;14.00;;;9.20;;
26435;SDS011;15351;52.408;16.826;2023-03-01T14:31:50;14.20;;;9.70;;
26435;SDS011;15351;52.408;16.826;2023-03-01T14:34:23;13.80;;;9.10;;
26435;SDS011;15351;52.408;16.826;2023-03-01T14:36:57;14.30;;;9.00;;
26435;SDS011;15351;52.408;16.826;2023-03-01T14:39:44;12.60;;;8.50;;
26435;SDS011;15351;52.408;16.826;2023-03-01T14:42:23;13.60;;;9.00;;
26435;SDS011;15351;52.408;16.826;2023-03-01T14:45:11;14.00;;;8.90;;
26435;SDS011;15351;52.408;16.826;2023-03-01T14:47:54;13.70;;;8.80;;
26435;SDS011;15351;52.408;16.826;2023-03-01T14:50:45;14.60;;;8.80;;
26435;SDS011;15351;52.408;16.826;2023-03-01T14:53:20;12.50;;;8.40;;
26435;SDS011;15351;52.408;16.826;2023-03-01T14:55:55;13.80;;;9.00;;
26435;SDS011;15351;52.408;16.826;2023-03-01T14:58:44;22.90;;;13.80;;
26435;SDS011;15351;52.408;16.826;2023-03-01T15:01:18;20.40;;;12.60;;
26435;SDS011;15351;52.408;16.826;2023-03-01T15:03:49;20.60;;;12.00;;
26435;SDS011;15351;52.408;16.826;2023-03-01T15:06:20;15.90;;;11.20;;
26435;SDS011;15351;52.408;16.826;2023-03-01T15:08:51;13.90;;;9.70;;
26435;SDS011;15351;52.408;16.826;2023-03-01T15:11:31;17.70;;;11.10;;
26435;SDS011;15351;52.408;16.826;2023-03-01T15:14:29;16.50;;;10.90;;
26435;SDS011;15351;52.408;16.826;2023-03-01T15:20:18;11.60;;;8.20;;
26435;SDS011;15351;52.408;16.826;2023-03-01T15:23:00;13.30;;;8.80;;
26435;SDS011;15351;52.408;16.826;2023-03-01T15:25:49;12.50;;;8.80;;
26435;SDS011;15351;52.408;16.826;2023-03-01T15:29:22;14.30;;;9.50;;
26435;SDS011;15351;52.408;16.826;2023-03-01T15:32:31;14.70;;;9.90;;
26435;SDS011;15351;52.408;16.826;2023-03-01T15:35:54;12.30;;;9.10;;
26435;SDS011;15351;52.408;16.826;2023-03-01T15:41:59;14.50;;;9.50;;
26435;SDS011;15351;52.408;16.826;2023-03-01T15:45:06;15.20;;;9.50;;
26435;SDS011;15351;52.408;16.826;2023-03-01T15:47:56;12.10;;;8.70;;
26435;SDS011;15351;52.408;16.826;2023-03-01T15:50:53;13.20;;;8.90;;
26435;SDS011;15351;52.408;16.826;2023-03-01T15:53:23;12.70;;;8.80;;
26435;SDS011;15351;52.408;16.826;2023-03-01T15:56:12;13.30;;;9.20;;
26435;SDS011;15351;52.408;16.826;2023-03-01T15:58:40;12.80;;;8.50;;
26435;SDS011;15351;52.408;16.826;2023-03-01T16:01:13;12.60;;;8.60;;
26435;SDS011;15351;52.408;16.826;2023-03-01T16:03:48;12.40;;;9.00;;
26435;SDS011;15351;52.408;16.826;2023-03-01T16:06:20;12.50;;;8.50;;
26435;SDS011;15351;52.408;16.826;2023-03-01T16:08:47;12.30;;;8.90;;
26435;SDS011;15351;52.408;16.826;2023-03-01T16:11:23;14.20;;;9.40;;
26435;SDS011;15351;52.408;16.826;2023-03-01T16:13:51;13.00;;;9.60;;
26435;SDS011;15351;52.408;16.826;2023-03-01T16:16:21;13.90;;;9.70;;
26435;SDS011;15351;52.408;16.826;2023-03-01T16:18:53;12.00;;;9.20;;
26435;SDS011;15351;52.408;16.826;2023-03-01T16:21:29;15.00;;;9.80;;
26435;SDS011;15351;52.408;16.826;2023-03-01T16:24:06;15.00;;;9.80;;
26435;SDS011;15351;52.408;16.826;2023-03-01T16:26:35;17.50;;;11.10;;
26435;SDS011;15351;52.408;16.826;2023-03-01T16:29:11;20.10;;;12.70;;
26435;SDS011;15351;52.408;16.826;2023-03-01T16:31:38;21.90;;;13.90;;
26435;SDS011;15351;52.408;16.826;2023-03-01T16:34:06;21.60;;;13.80;;
26435;SDS011;15351;52.408;16.826;2023-03-01T16:36:37;27.70;;;17.90;;
26435;SDS011;15351;52.408;16.826;2023-03-01T16:39:09;40.80;;;25.00;;
26435;SDS011;15351;52.408;16.826;2023-03-01T16:41:38;37.70;;;24.30;;
26435;SDS011;15351;52.408;16.826;2023-03-01T16:44:04;35.60;;;22.90;;
26435;SDS011;15351;52.408;16.826;2023-03-01T16:46:32;36.10;;;22.70;;
26435;SDS011;15351;52.408;16.826;2023-03-01T16:49:02;40.80;;;24.20;;
26435;SDS011;15351;52.408;16.826;2023-03-01T16:51:30;36.40;;;23.00;;
26435;SDS011;15351;52.408;16.826;2023-03-01T16:53:57;37.10;;;24.20;;
26435;SDS011;15351;52.408;16.826;2023-03-01T16:56:24;39.90;;;25.20;;
26435;SDS011;15351;52.408;16.826;2023-03-01T16:58:53;42.80;;;26.30;;
26435;SDS011;15351;52.408;16.826;2023-03-01T17:01:22;37.60;;;24.30;;
26435;SDS011;15351;52.408;16.826;2023-03-01T17:03:54;36.70;;;23.30;;
26435;SDS011;15351;52.408;16.826;2023-03-01T17:06:23;37.00;;;22.80;;
26435;SDS011;15351;52.408;16.826;2023-03-01T17:08:51;35.50;;;21.50;;
26435;SDS011;15351;52.408;16.826;2023-03-01T17:11:21;38.70;;;23.50;;
26435;SDS011;15351;52.408;16.826;2023-03-01T17:13:53;39.10;;;25.40;;
26435;SDS011;15351;52.408;16.826;2023-03-01T17:16:25;47.10;;;30.20;;
26435;SDS011;15351;52.408;16.826;2023-03-01T17:18:53;45.10;;;30.70;;
26435;SDS011;15351;52.408;16.826;2023-03-01T17:21:27;44.30;;;28.30;;
26435;SDS011;15351;52.408;16.826;2023-03-01T17:23:55;51.90;;;27.80;;
26435;SDS011;15351;52.408;16.826;2023-03-01T17:26:23;47.00;;;30.90;;
26435;SDS011;15351;52.408;16.826;2023-03-01T17:28:52;46.00;;;30.20;;
26435;SDS011;15351;52.408;16.826;2023-03-01T17:31:20;41.60;;;25.70;;
26435;SDS011;15351;52.408;16.826;2023-03-01T17:33:50;52.40;;;29.30;;
26435;SDS011;15351;52.408;16.826;2023-03-01T17:36:24;79.90;;;41.90;;
26435;SDS011;15351;52.408;16.826;2023-03-01T17:38:51;69.70;;;40.80;;
26435;SDS011;15351;52.408;16.826;2023-03-01T17:41:21;77.30;;;44.70;;
26435;SDS011;15351;52.408;16.826;2023-03-01T17:43:50;83.50;;;49.80;;